sensor_id;sensor_type;location;lat;lon;timestamp;P1;durP1;ratioP1;P2;durP2;ratioP2
13999;SDS011;7075;53.574;10.054;2024-01-15T00:01:26;5.90;;;1.60;;
13999;SDS011;7075;53.574;10.054;2024-01-15T00:03:52;8.63;;;1.63;;
13999;SDS011;7075;53.574;10.054;2024-01-15T00:06:18;7.10;;;2.20;;
13999;SDS011;7075;53.574;10.054;2024-01-15T00:08:44;5.43;;;1.27;;
13999;SDS011;7075;53.574;10.054;2024-01-15T00:11:10;4.50;;;1.13;;
13999;SDS011;7075;53.574;10.054;2024-01-15T00:13:36;14.07;;;1.80;;
13999;SDS011;7075;53.574;10.054;2024-01-15T00:16:04;5.87;;;1.40;;
13999;SDS011;7075;53.574;10.054;2024-01-15T00:18:31;5.30;;;1.77;;
13999;SDS011;7075;53.574;10.054;2024-01-15T00:20:57;6.47;;;1.50;;
13999;SDS011;7075;53.574;10.054;2024-01-15T00:23:23;6.47;;;1.40;;
13999;SDS011;7075;53.574;10.054;2024-01-15T00:25:50;4.83;;;1.23;;
13999;SDS011;7075;53.574;10.054;2024-01-15T00:28:16;5.93;;;1.33;;
13999;SDS011;7075;53.574;10.054;2024-01-15T00:30:42;8.20;;;1.43;;
13999;SDS011;7075;53.574;10.054;2024-01-15T00:33:08;9.57;;;1.73;;
13999;SDS011;7075;53.574;10.054;2024-01-15T00:35:37;6.43;;;1.30;;
13999;SDS011;7075;53.574;10.054;2024-01-15T00:38:03;9.13;;;1.70;;
13999;SDS011;7075;53.574;10.054;2024-01-15T00:40:29;6.47;;;1.83;;
13999;SDS011;7075;53.574;10.054;2024-01-15T00:42:55;4.17;;;1.70;;
13999;SDS011;7075;53.574;10.054;2024-01-15T00:45:22;5.87;;;1.87;;
13999;SDS011;7075;53.574;10.054;2024-01-15T00:47:48;9.00;;;2.13;;
13999;SDS011;7075;53.574;10.054;2024-01-15T00:50:14;9.53;;;2.03;;
13999;SDS011;7075;53.574;10.054;2024-01-15T00:52:41;11.20;;;1.93;;
13999;SDS011;7075;53.574;10.054;2024-01-15T00:55:07;6.43;;;1.23;;
13999;SDS011;7075;53.574;10.054;2024-01-15T00:57:33;4.67;;;1.37;;
13999;SDS011;7075;53.574;10.054;2024-01-15T00:59:59;7.80;;;1.60;;
13999;SDS011;7075;53.574;10.054;2024-01-15T01:02:26;4.70;;;1.23;;
13999;SDS011;7075;53.574;10.054;2024-01-15T01:04:51;8.87;;;2.70;;
13999;SDS011;7075;53.574;10.054;2024-01-15T01:07:17;7.83;;;1.37;;
13999;SDS011;7075;53.574;10.054;2024-01-15T01:09:44;6.90;;;1.63;;
13999;SDS011;7075;53.574;10.054;2024-01-15T01:12:10;4.33;;;1.37;;
13999;SDS011;7075;53.574;10.054;2024-01-15T01:14:36;9.80;;;1.80;;
13999;SDS011;7075;53.574;10.054;2024-01-15T01:17:02;11.17;;;2.23;;
13999;SDS011;7075;53.574;10.054;2024-01-15T01:19:28;8.13;;;1.73;;
13999;SDS011;7075;53.574;10.054;2024-01-15T01:21:55;10.80;;;2.50;;
13999;SDS011;7075;53.574;10.054;2024-01-15T01:24:21;1.87;;;1.17;;
13999;SDS011;7075;53.574;10.054;2024-01-15T01:26:47;7.17;;;1.53;;
13999;SDS011;7075;53.574;10.054;2024-01-15T01:29:14;6.57;;;1.80;;
13999;SDS011;7075;53.574;10.054;2024-01-15T01:31:43;5.20;;;2.03;;
13999;SDS011;7075;53.574;10.054;2024-01-15T01:34:09;14.67;;;2.00;;
13999;SDS011;7075;53.574;10.054;2024-01-15T01:36:35;4.37;;;1.50;;
13999;SDS011;7075;53.574;10.054;2024-01-15T01:39:01;3.10;;;1.00;;
13999;SDS011;7075;53.574;10.054;2024-01-15T01:41:27;8.53;;;2.50;;
13999;SDS011;7075;53.574;10.054;2024-01-15T01:43:53;9.30;;;1.10;;
13999;SDS011;7075;53.574;10.054;2024-01-15T01:46:20;8.30;;;1.67;;
13999;SDS011;7075;53.574;10.054;2024-01-15T01:48:46;7.87;;;1.60;;
13999;SDS011;7075;53.574;10.054;2024-01-15T01:51:12;12.23;;;1.90;;
13999;SDS011;7075;53.574;10.054;2024-01-15T01:53:38;7.97;;;1.43;;
13999;SDS011;7075;53.574;10.054;2024-01-15T01:56:04;7.30;;;1.67;;
13999;SDS011;7075;53.574;10.054;2024-01-15T01:58:31;6.77;;;1.97;;
13999;SDS011;7075;53.574;10.054;2024-01-15T02:00:57;8.83;;;1.70;;
13999;SDS011;7075;53.574;10.054;2024-01-15T02:03:24;9.50;;;1.37;;
13999;SDS011;7075;53.574;10.054;2024-01-15T02:05:50;7.80;;;1.63;;
13999;SDS011;7075;53.574;10.054;2024-01-15T02:08:16;6.27;;;1.43;;
13999;SDS011;7075;53.574;10.054;2024-01-15T02:10:42;11.23;;;2.40;;
13999;SDS011;7075;53.574;10.054;2024-01-15T02:13:08;10.00;;;2.37;;
13999;SDS011;7075;53.574;10.054;2024-01-15T02:15:34;12.20;;;2.60;;
13999;SDS011;7075;53.574;10.054;2024-01-15T02:18:01;3.57;;;1.00;;
13999;SDS011;7075;53.574;10.054;2024-01-15T02:20:27;3.13;;;0.97;;
13999;SDS011;7075;53.574;10.054;2024-01-15T02:22:53;7.63;;;1.20;;
13999;SDS011;7075;53.574;10.054;2024-01-15T02:25:19;5.67;;;1.47;;
13999;SDS011;7075;53.574;10.054;2024-01-15T02:27:46;5.00;;;1.77;;
13999;SDS011;7075;53.574;10.054;2024-01-15T02:30:12;7.03;;;1.60;;
13999;SDS011;7075;53.574;10.054;2024-01-15T02:32:38;7.67;;;1.43;;
13999;SDS011;7075;53.574;10.054;2024-01-15T02:35:04;5.67;;;1.37;;
13999;SDS011;7075;53.574;10.054;2024-01-15T02:37:30;7.40;;;1.47;;
13999;SDS011;7075;53.574;10.054;2024-01-15T02:39:56;9.33;;;2.50;;
13999;SDS011;7075;53.574;10.054;2024-01-15T02:42:22;6.17;;;1.17;;
13999;SDS011;7075;53.574;10.054;2024-01-15T02:44:48;6.37;;;1.33;;
13999;SDS011;7075;53.574;10.054;2024-01-15T02:47:14;7.33;;;2.20;;
13999;SDS011;7075;53.574;10.054;2024-01-15T02:49:40;9.30;;;2.13;;
13999;SDS011;7075;53.574;10.054;2024-01-15T02:52:06;11.23;;;1.57;;
13999;SDS011;7075;53.574;10.054;2024-01-15T02:54:32;13.93;;;2.10;;
13999;SDS011;7075;53.574;10.054;2024-01-15T02:56:58;10.37;;;2.17;;
13999;SDS011;7075;53.574;10.054;2024-01-15T02:59:24;11.37;;;1.70;;
13999;SDS011;7075;53.574;10.054;2024-01-15T03:01:50;4.57;;;1.23;;
13999;SDS011;7075;53.574;10.054;2024-01-15T03:04:16;8.37;;;1.60;;
13999;SDS011;7075;53.574;10.054;2024-01-15T03:06:42;10.13;;;2.30;;
13999;SDS011;7075;53.574;10.054;2024-01-15T03:09:08;5.07;;;1.40;;
13999;SDS011;7075;53.574;10.054;2024-01-15T03:11:37;4.73;;;2.03;;
13999;SDS011;7075;53.574;10.054;2024-01-15T03:14:03;5.97;;;1.63;;
13999;SDS011;7075;53.574;10.054;2024-01-15T03:16:29;3.23;;;1.20;;
13999;SDS011;7075;53.574;10.054;2024-01-15T03:18:55;6.80;;;1.20;;
13999;SDS011;7075;53.574;10.054;2024-01-15T03:21:22;5.43;;;1.43;;
13999;SDS011;7075;53.574;10.054;2024-01-15T03:23:49;7.30;;;1.80;;
13999;SDS011;7075;53.574;10.054;2024-01-15T03:26:15;16.63;;;1.73;;
13999;SDS011;7075;53.574;10.054;2024-01-15T03:28:41;5.57;;;1.70;;
13999;SDS011;7075;53.574;10.054;2024-01-15T03:31:07;9.53;;;2.37;;
13999;SDS011;7075;53.574;10.054;2024-01-15T03:33:33;11.43;;;2.13;;
13999;SDS011;7075;53.574;10.054;2024-01-15T03:36:00;10.60;;;1.80;;
13999;SDS011;7075;53.574;10.054;2024-01-15T03:38:28;8.53;;;2.13;;
13999;SDS011;7075;53.574;10.054;2024-01-15T03:40:54;9.77;;;1.97;;
13999;SDS011;7075;53.574;10.054;2024-01-15T03:43:20;9.53;;;2.53;;
13999;SDS011;7075;53.574;10.054;2024-01-15T03:45:46;10.47;;;2.13;;
13999;SDS011;7075;53.574;10.054;2024-01-15T03:48:12;9.13;;;1.93;;
13999;SDS011;7075;53.574;10.054;2024-01-15T03:50:38;7.10;;;1.80;;
13999;SDS011;7075;53.574;10.054;2024-01-15T03:53:03;8.97;;;1.70;;
13999;SDS011;7075;53.574;10.054;2024-01-15T03:55:29;11.37;;;2.70;;
13999;SDS011;7075;53.574;10.054;2024-01-15T03:57:55;14.73;;;2.60;;
13999;SDS011;7075;53.574;10.054;2024-01-15T04:00:21;10.33;;;1.73;;
13999;SDS011;7075;53.574;10.054;2024-01-15T04:02:48;11.27;;;2.23;;
13999;SDS011;7075;53.574;10.054;2024-01-15T04:05:14;10.33;;;1.50;;
13999;SDS011;7075;53.574;10.054;2024-01-15T04:07:40;13.77;;;3.70;;
13999;SDS011;7075;53.574;10.054;2024-01-15T04:10:05;8.83;;;2.60;;
13999;SDS011;7075;53.574;10.054;2024-01-15T04:12:32;10.30;;;2.30;;
13999;SDS011;7075;53.574;10.054;2024-01-15T04:14:58;13.13;;;2.53;;
13999;SDS011;7075;53.574;10.054;2024-01-15T04:17:23;10.80;;;2.40;;
13999;SDS011;7075;53.574;10.054;2024-01-15T04:19:49;8.40;;;2.10;;
13999;SDS011;7075;53.574;10.054;2024-01-15T04:22:15;10.70;;;1.97;;
13999;SDS011;7075;53.574;10.054;2024-01-15T04:24:41;12.37;;;2.17;;
13999;SDS011;7075;53.574;10.054;2024-01-15T04:27:07;16.10;;;2.33;;
13999;SDS011;7075;53.574;10.054;2024-01-15T04:29:33;8.80;;;1.80;;
13999;SDS011;7075;53.574;10.054;2024-01-15T04:31:59;14.23;;;3.07;;
13999;SDS011;7075;53.574;10.054;2024-01-15T04:34:25;11.17;;;3.10;;
13999;SDS011;7075;53.574;10.054;2024-01-15T04:36:51;15.00;;;2.40;;
13999;SDS011;7075;53.574;10.054;2024-01-15T04:39:17;8.33;;;2.87;;
13999;SDS011;7075;53.574;10.054;2024-01-15T04:41:43;16.13;;;1.70;;
13999;SDS011;7075;53.574;10.054;2024-01-15T04:44:09;12.97;;;2.20;;
13999;SDS011;7075;53.574;10.054;2024-01-15T04:46:35;25.13;;;3.60;;
13999;SDS011;7075;53.574;10.054;2024-01-15T04:52:04;14.23;;;2.30;;
13999;SDS011;7075;53.574;10.054;2024-01-15T04:54:30;8.60;;;2.07;;
13999;SDS011;7075;53.574;10.054;2024-01-15T04:56:56;14.67;;;2.50;;
13999;SDS011;7075;53.574;10.054;2024-01-15T04:59:24;9.03;;;2.30;;
13999;SDS011;7075;53.574;10.054;2024-01-15T05:01:50;16.33;;;2.67;;
13999;SDS011;7075;53.574;10.054;2024-01-15T05:04:16;17.93;;;3.00;;
13999;SDS011;7075;53.574;10.054;2024-01-15T05:06:42;15.90;;;2.53;;
13999;SDS011;7075;53.574;10.054;2024-01-15T05:09:07;15.37;;;3.03;;
13999;SDS011;7075;53.574;10.054;2024-01-15T05:11:35;21.60;;;4.27;;
13999;SDS011;7075;53.574;10.054;2024-01-15T05:14:01;12.23;;;3.73;;
13999;SDS011;7075;53.574;10.054;2024-01-15T05:16:34;7.57;;;2.07;;
13999;SDS011;7075;53.574;10.054;2024-01-15T05:19:01;12.87;;;4.03;;
13999;SDS011;7075;53.574;10.054;2024-01-15T05:21:27;16.90;;;2.10;;
13999;SDS011;7075;53.574;10.054;2024-01-15T05:23:53;13.70;;;3.13;;
13999;SDS011;7075;53.574;10.054;2024-01-15T05:26:19;10.63;;;2.03;;
13999;SDS011;7075;53.574;10.054;2024-01-15T05:28:46;17.03;;;2.20;;
13999;SDS011;7075;53.574;10.054;2024-01-15T05:31:12;16.93;;;2.33;;
13999;SDS011;7075;53.574;10.054;2024-01-15T05:33:37;7.83;;;2.63;;
13999;SDS011;7075;53.574;10.054;2024-01-15T05:36:04;9.57;;;2.97;;
13999;SDS011;7075;53.574;10.054;2024-01-15T05:38:30;10.93;;;2.90;;
13999;SDS011;7075;53.574;10.054;2024-01-15T05:40:56;17.53;;;2.27;;
13999;SDS011;7075;53.574;10.054;2024-01-15T05:43:22;13.80;;;2.53;;
13999;SDS011;7075;53.574;10.054;2024-01-15T05:45:48;17.30;;;2.60;;
13999;SDS011;7075;53.574;10.054;2024-01-15T05:48:13;8.50;;;2.33;;
13999;SDS011;7075;53.574;10.054;2024-01-15T05:50:39;18.77;;;3.43;;
13999;SDS011;7075;53.574;10.054;2024-01-15T05:53:05;18.70;;;2.73;;
13999;SDS011;7075;53.574;10.054;2024-01-15T05:55:31;13.47;;;2.50;;
13999;SDS011;7075;53.574;10.054;2024-01-15T05:57:57;13.87;;;2.33;;
13999;SDS011;7075;53.574;10.054;2024-01-15T06:00:23;11.30;;;2.20;;
13999;SDS011;7075;53.574;10.054;2024-01-15T06:02:49;8.57;;;2.77;;
13999;SDS011;7075;53.574;10.054;2024-01-15T06:05:15;15.40;;;2.70;;
13999;SDS011;7075;53.574;10.054;2024-01-15T06:07:41;11.40;;;2.43;;
13999;SDS011;7075;53.574;10.054;2024-01-15T06:10:07;14.13;;;3.10;;
13999;SDS011;7075;53.574;10.054;2024-01-15T06:12:33;17.10;;;3.93;;
13999;SDS011;7075;53.574;10.054;2024-01-15T06:14:59;10.33;;;2.17;;
13999;SDS011;7075;53.574;10.054;2024-01-15T06:17:25;11.50;;;2.53;;
13999;SDS011;7075;53.574;10.054;2024-01-15T06:19:51;12.27;;;3.10;;
13999;SDS011;7075;53.574;10.054;2024-01-15T06:22:17;12.67;;;2.63;;
13999;SDS011;7075;53.574;10.054;2024-01-15T06:24:43;14.13;;;2.60;;
13999;SDS011;7075;53.574;10.054;2024-01-15T06:27:09;14.00;;;3.23;;
13999;SDS011;7075;53.574;10.054;2024-01-15T06:29:37;14.83;;;3.10;;
13999;SDS011;7075;53.574;10.054;2024-01-15T06:32:03;12.00;;;1.90;;
13999;SDS011;7075;53.574;10.054;2024-01-15T06:34:30;13.47;;;1.93;;
13999;SDS011;7075;53.574;10.054;2024-01-15T06:36:56;13.90;;;2.30;;
13999;SDS011;7075;53.574;10.054;2024-01-15T06:39:22;12.60;;;1.90;;
13999;SDS011;7075;53.574;10.054;2024-01-15T06:41:48;20.07;;;3.37;;
13999;SDS011;7075;53.574;10.054;2024-01-15T06:44:14;10.13;;;3.03;;
13999;SDS011;7075;53.574;10.054;2024-01-15T06:46:44;8.40;;;2.13;;
13999;SDS011;7075;53.574;10.054;2024-01-15T06:49:10;13.40;;;3.33;;
13999;SDS011;7075;53.574;10.054;2024-01-15T06:51:36;9.30;;;2.33;;
13999;SDS011;7075;53.574;10.054;2024-01-15T06:54:03;9.97;;;2.13;;
13999;SDS011;7075;53.574;10.054;2024-01-15T06:56:31;13.83;;;2.47;;
13999;SDS011;7075;53.574;10.054;2024-01-15T06:58:57;15.87;;;3.10;;
13999;SDS011;7075;53.574;10.054;2024-01-15T07:01:23;14.43;;;2.53;;
13999;SDS011;7075;53.574;10.054;2024-01-15T07:03:49;13.53;;;2.83;;
13999;SDS011;7075;53.574;10.054;2024-01-15T07:06:15;17.23;;;2.27;;
13999;SDS011;7075;53.574;10.054;2024-01-15T07:08:41;16.47;;;2.50;;
13999;SDS011;7075;53.574;10.054;2024-01-15T07:11:07;11.43;;;2.27;;
13999;SDS011;7075;53.574;10.054;2024-01-15T07:13:33;18.10;;;2.97;;
13999;SDS011;7075;53.574;10.054;2024-01-15T07:15:59;7.73;;;1.97;;
13999;SDS011;7075;53.574;10.054;2024-01-15T07:18:25;5.77;;;2.10;;
13999;SDS011;7075;53.574;10.054;2024-01-15T07:20:51;9.63;;;1.60;;
13999;SDS011;7075;53.574;10.054;2024-01-15T07:23:18;10.23;;;2.03;;
13999;SDS011;7075;53.574;10.054;2024-01-15T07:25:44;15.10;;;2.37;;
13999;SDS011;7075;53.574;10.054;2024-01-15T07:28:09;10.70;;;2.37;;
13999;SDS011;7075;53.574;10.054;2024-01-15T07:30:35;10.57;;;2.33;;
13999;SDS011;7075;53.574;10.054;2024-01-15T07:33:04;8.17;;;1.30;;
13999;SDS011;7075;53.574;10.054;2024-01-15T07:35:30;14.37;;;2.53;;
13999;SDS011;7075;53.574;10.054;2024-01-15T07:37:56;12.53;;;2.33;;
13999;SDS011;7075;53.574;10.054;2024-01-15T07:40:22;8.77;;;1.97;;
13999;SDS011;7075;53.574;10.054;2024-01-15T07:42:49;10.87;;;2.03;;
13999;SDS011;7075;53.574;10.054;2024-01-15T07:45:15;10.50;;;2.07;;
13999;SDS011;7075;53.574;10.054;2024-01-15T07:47:41;8.43;;;2.03;;
13999;SDS011;7075;53.574;10.054;2024-01-15T07:50:07;7.80;;;1.50;;
13999;SDS011;7075;53.574;10.054;2024-01-15T07:52:33;9.03;;;1.40;;
13999;SDS011;7075;53.574;10.054;2024-01-15T07:54:59;11.37;;;2.23;;
13999;SDS011;7075;53.574;10.054;2024-01-15T07:57:25;11.57;;;1.77;;
13999;SDS011;7075;53.574;10.054;2024-01-15T07:59:51;10.33;;;1.70;;
13999;SDS011;7075;53.574;10.054;2024-01-15T08:02:17;9.00;;;1.60;;
13999;SDS011;7075;53.574;10.054;2024-01-15T08:04:43;16.67;;;2.63;;
13999;SDS011;7075;53.574;10.054;2024-01-15T08:07:11;8.83;;;2.30;;
13999;SDS011;7075;53.574;10.054;2024-01-15T08:09:38;6.07;;;2.20;;
13999;SDS011;7075;53.574;10.054;2024-01-15T08:12:04;5.60;;;1.73;;
13999;SDS011;7075;53.574;10.054;2024-01-15T08:14:31;6.23;;;1.73;;
13999;SDS011;7075;53.574;10.054;2024-01-15T08:16:57;15.43;;;1.83;;
13999;SDS011;7075;53.574;10.054;2024-01-15T08:19:23;7.87;;;2.30;;
13999;SDS011;7075;53.574;10.054;2024-01-15T08:21:48;6.90;;;1.70;;
13999;SDS011;7075;53.574;10.054;2024-01-15T08:24:14;8.27;;;1.83;;
13999;SDS011;7075;53.574;10.054;2024-01-15T08:26:41;10.77;;;2.53;;
13999;SDS011;7075;53.574;10.054;2024-01-15T08:29:08;8.90;;;2.30;;
13999;SDS011;7075;53.574;10.054;2024-01-15T08:31:34;13.70;;;2.70;;
13999;SDS011;7075;53.574;10.054;2024-01-15T08:34:00;8.50;;;2.13;;
13999;SDS011;7075;53.574;10.054;2024-01-15T08:36:27;4.13;;;2.23;;
13999;SDS011;7075;53.574;10.054;2024-01-15T08:38:54;6.30;;;1.53;;
13999;SDS011;7075;53.574;10.054;2024-01-15T08:41:20;11.33;;;1.77;;
13999;SDS011;7075;53.574;10.054;2024-01-15T08:43:46;7.57;;;2.10;;
13999;SDS011;7075;53.574;10.054;2024-01-15T08:46:12;13.30;;;2.93;;
13999;SDS011;7075;53.574;10.054;2024-01-15T08:48:38;10.83;;;2.37;;
13999;SDS011;7075;53.574;10.054;2024-01-15T08:51:05;14.97;;;2.67;;
13999;SDS011;7075;53.574;10.054;2024-01-15T08:53:31;13.40;;;1.50;;
13999;SDS011;7075;53.574;10.054;2024-01-15T08:55:57;6.83;;;1.40;;
13999;SDS011;7075;53.574;10.054;2024-01-15T08:58:23;7.37;;;1.67;;
13999;SDS011;7075;53.574;10.054;2024-01-15T09:00:50;6.47;;;1.63;;
13999;SDS011;7075;53.574;10.054;2024-01-15T09:03:16;10.43;;;1.33;;
13999;SDS011;7075;53.574;10.054;2024-01-15T09:05:42;7.87;;;1.40;;
13999;SDS011;7075;53.574;10.054;2024-01-15T09:08:08;5.10;;;1.20;;
13999;SDS011;7075;53.574;10.054;2024-01-15T09:10:34;4.97;;;1.87;;
13999;SDS011;7075;53.574;10.054;2024-01-15T09:13:00;5.20;;;1.33;;
13999;SDS011;7075;53.574;10.054;2024-01-15T09:15:26;8.60;;;2.13;;
13999;SDS011;7075;53.574;10.054;2024-01-15T09:17:52;11.23;;;2.47;;
13999;SDS011;7075;53.574;10.054;2024-01-15T09:20:18;11.23;;;1.63;;
13999;SDS011;7075;53.574;10.054;2024-01-15T09:22:44;7.57;;;1.97;;
13999;SDS011;7075;53.574;10.054;2024-01-15T09:25:10;8.40;;;2.20;;
13999;SDS011;7075;53.574;10.054;2024-01-15T09:27:36;5.57;;;1.80;;
13999;SDS011;7075;53.574;10.054;2024-01-15T09:30:03;8.77;;;1.90;;
13999;SDS011;7075;53.574;10.054;2024-01-15T09:32:29;2.47;;;0.93;;
13999;SDS011;7075;53.574;10.054;2024-01-15T09:34:56;7.77;;;2.33;;
13999;SDS011;7075;53.574;10.054;2024-01-15T09:37:22;5.37;;;1.53;;
13999;SDS011;7075;53.574;10.054;2024-01-15T09:39:48;9.07;;;1.40;;
13999;SDS011;7075;53.574;10.054;2024-01-15T09:42:15;7.00;;;1.83;;
13999;SDS011;7075;53.574;10.054;2024-01-15T09:44:41;9.43;;;1.90;;
13999;SDS011;7075;53.574;10.054;2024-01-15T09:47:08;3.80;;;1.50;;
13999;SDS011;7075;53.574;10.054;2024-01-15T09:49:35;9.37;;;2.10;;
13999;SDS011;7075;53.574;10.054;2024-01-15T09:52:02;3.37;;;1.13;;
13999;SDS011;7075;53.574;10.054;2024-01-15T09:54:29;4.00;;;0.70;;
13999;SDS011;7075;53.574;10.054;2024-01-15T09:56:55;2.20;;;0.90;;
13999;SDS011;7075;53.574;10.054;2024-01-15T09:59:23;5.30;;;1.07;;
13999;SDS011;7075;53.574;10.054;2024-01-15T10:01:51;13.07;;;1.10;;
13999;SDS011;7075;53.574;10.054;2024-01-15T10:04:17;6.37;;;1.27;;
13999;SDS011;7075;53.574;10.054;2024-01-15T10:06:44;7.13;;;1.50;;
13999;SDS011;7075;53.574;10.054;2024-01-15T10:09:12;7.40;;;2.40;;
13999;SDS011;7075;53.574;10.054;2024-01-15T10:11:42;11.93;;;1.97;;
13999;SDS011;7075;53.574;10.054;2024-01-15T10:14:12;4.30;;;1.50;;
13999;SDS011;7075;53.574;10.054;2024-01-15T10:16:39;9.93;;;1.53;;
13999;SDS011;7075;53.574;10.054;2024-01-15T10:19:07;10.87;;;1.10;;
13999;SDS011;7075;53.574;10.054;2024-01-15T10:21:33;12.10;;;1.50;;
13999;SDS011;7075;53.574;10.054;2024-01-15T10:24:01;11.67;;;2.03;;
13999;SDS011;7075;53.574;10.054;2024-01-15T10:26:30;8.87;;;1.37;;
13999;SDS011;7075;53.574;10.054;2024-01-15T10:29:00;6.23;;;1.00;;
13999;SDS011;7075;53.574;10.054;2024-01-15T10:31:26;5.83;;;1.13;;
13999;SDS011;7075;53.574;10.054;2024-01-15T10:33:53;3.33;;;0.80;;
13999;SDS011;7075;53.574;10.054;2024-01-15T10:36:20;2.30;;;0.87;;
13999;SDS011;7075;53.574;10.054;2024-01-15T10:38:47;2.23;;;0.80;;
13999;SDS011;7075;53.574;10.054;2024-01-15T10:41:13;4.17;;;0.80;;
13999;SDS011;7075;53.574;10.054;2024-01-15T10:43:39;3.10;;;0.80;;
13999;SDS011;7075;53.574;10.054;2024-01-15T10:46:06;3.60;;;0.80;;
13999;SDS011;7075;53.574;10.054;2024-01-15T10:48:33;5.87;;;1.03;;
13999;SDS011;7075;53.574;10.054;2024-01-15T10:51:00;3.50;;;1.17;;
13999;SDS011;7075;53.574;10.054;2024-01-15T10:53:35;7.93;;;1.27;;
13999;SDS011;7075;53.574;10.054;2024-01-15T10:56:01;6.30;;;1.60;;
13999;SDS011;7075;53.574;10.054;2024-01-15T10:58:28;4.63;;;1.33;;
13999;SDS011;7075;53.574;10.054;2024-01-15T11:00:56;2.53;;;1.60;;
13999;SDS011;7075;53.574;10.054;2024-01-15T11:03:22;1.57;;;1.00;;
13999;SDS011;7075;53.574;10.054;2024-01-15T11:05:48;5.03;;;1.57;;
13999;SDS011;7075;53.574;10.054;2024-01-15T11:08:16;3.17;;;1.03;;
13999;SDS011;7075;53.574;10.054;2024-01-15T11:10:47;1.60;;;0.70;;
13999;SDS011;7075;53.574;10.054;2024-01-15T11:15:54;4.47;;;1.50;;
13999;SDS011;7075;53.574;10.054;2024-01-15T11:18:20;3.97;;;0.60;;
13999;SDS011;7075;53.574;10.054;2024-01-15T11:23:42;4.87;;;1.00;;
13999;SDS011;7075;53.574;10.054;2024-01-15T11:26:26;2.93;;;1.00;;
13999;SDS011;7075;53.574;10.054;2024-01-15T11:28:54;2.87;;;1.20;;
13999;SDS011;7075;53.574;10.054;2024-01-15T11:31:20;1.47;;;1.00;;
13999;SDS011;7075;53.574;10.054;2024-01-15T11:33:49;3.40;;;1.10;;
13999;SDS011;7075;53.574;10.054;2024-01-15T11:36:15;3.47;;;1.10;;
13999;SDS011;7075;53.574;10.054;2024-01-15T11:38:41;1.50;;;1.10;;
13999;SDS011;7075;53.574;10.054;2024-01-15T11:41:14;1.37;;;1.10;;
13999;SDS011;7075;53.574;10.054;2024-01-15T11:43:43;4.03;;;1.30;;
13999;SDS011;7075;53.574;10.054;2024-01-15T11:46:10;6.20;;;1.40;;
13999;SDS011;7075;53.574;10.054;2024-01-15T11:48:44;1.10;;;1.00;;
13999;SDS011;7075;53.574;10.054;2024-01-15T11:51:11;3.80;;;1.30;;
13999;SDS011;7075;53.574;10.054;2024-01-15T11:53:47;3.93;;;1.00;;
13999;SDS011;7075;53.574;10.054;2024-01-15T11:56:16;2.67;;;1.10;;
13999;SDS011;7075;53.574;10.054;2024-01-15T11:58:43;4.23;;;0.97;;
13999;SDS011;7075;53.574;10.054;2024-01-15T12:01:12;4.17;;;1.30;;
13999;SDS011;7075;53.574;10.054;2024-01-15T12:03:40;3.47;;;1.00;;
13999;SDS011;7075;53.574;10.054;2024-01-15T12:06:06;5.23;;;0.87;;
13999;SDS011;7075;53.574;10.054;2024-01-15T12:08:32;1.67;;;1.00;;
13999;SDS011;7075;53.574;10.054;2024-01-15T12:10:58;1.93;;;0.90;;
13999;SDS011;7075;53.574;10.054;2024-01-15T12:13:26;7.00;;;1.23;;
13999;SDS011;7075;53.574;10.054;2024-01-15T12:15:54;2.13;;;1.17;;
13999;SDS011;7075;53.574;10.054;2024-01-15T12:18:21;3.53;;;0.90;;
13999;SDS011;7075;53.574;10.054;2024-01-15T12:20:48;4.10;;;1.30;;
13999;SDS011;7075;53.574;10.054;2024-01-15T12:23:14;3.07;;;1.20;;
13999;SDS011;7075;53.574;10.054;2024-01-15T12:25:41;4.17;;;0.90;;
13999;SDS011;7075;53.574;10.054;2024-01-15T12:28:08;6.93;;;1.37;;
13999;SDS011;7075;53.574;10.054;2024-01-15T12:30:35;2.00;;;1.03;;
13999;SDS011;7075;53.574;10.054;2024-01-15T12:33:02;1.37;;;0.90;;
13999;SDS011;7075;53.574;10.054;2024-01-15T12:35:33;2.33;;;1.17;;
13999;SDS011;7075;53.574;10.054;2024-01-15T12:38:00;4.83;;;0.80;;
13999;SDS011;7075;53.574;10.054;2024-01-15T12:40:29;5.53;;;1.30;;
13999;SDS011;7075;53.574;10.054;2024-01-15T12:42:56;3.13;;;1.50;;
13999;SDS011;7075;53.574;10.054;2024-01-15T12:45:23;3.57;;;1.50;;
13999;SDS011;7075;53.574;10.054;2024-01-15T12:47:49;5.50;;;1.00;;
13999;SDS011;7075;53.574;10.054;2024-01-15T12:50:16;3.00;;;1.40;;
13999;SDS011;7075;53.574;10.054;2024-01-15T12:52:43;6.00;;;1.30;;
13999;SDS011;7075;53.574;10.054;2024-01-15T12:55:10;4.07;;;1.30;;
13999;SDS011;7075;53.574;10.054;2024-01-15T12:57:37;4.50;;;1.10;;
13999;SDS011;7075;53.574;10.054;2024-01-15T13:00:04;4.40;;;1.80;;
13999;SDS011;7075;53.574;10.054;2024-01-15T13:02:32;3.33;;;1.60;;
13999;SDS011;7075;53.574;10.054;2024-01-15T13:05:00;3.00;;;1.07;;
13999;SDS011;7075;53.574;10.054;2024-01-15T13:07:26;0.77;;;0.77;;
13999;SDS011;7075;53.574;10.054;2024-01-15T13:09:52;3.07;;;1.40;;
13999;SDS011;7075;53.574;10.054;2024-01-15T13:12:20;2.37;;;1.23;;
13999;SDS011;7075;53.574;10.054;2024-01-15T13:14:46;2.67;;;1.47;;
13999;SDS011;7075;53.574;10.054;2024-01-15T13:17:12;3.73;;;0.93;;
13999;SDS011;7075;53.574;10.054;2024-01-15T13:19:40;1.13;;;0.90;;
13999;SDS011;7075;53.574;10.054;2024-01-15T13:22:06;1.40;;;1.00;;
13999;SDS011;7075;53.574;10.054;2024-01-15T13:24:35;1.40;;;1.10;;
13999;SDS011;7075;53.574;10.054;2024-01-15T13:27:02;3.53;;;1.17;;
13999;SDS011;7075;53.574;10.054;2024-01-15T13:29:30;2.20;;;1.17;;
13999;SDS011;7075;53.574;10.054;2024-01-15T13:31:56;2.73;;;1.23;;
13999;SDS011;7075;53.574;10.054;2024-01-15T13:34:25;3.83;;;0.90;;
13999;SDS011;7075;53.574;10.054;2024-01-15T13:36:51;4.13;;;1.20;;
13999;SDS011;7075;53.574;10.054;2024-01-15T13:39:18;5.00;;;1.20;;
13999;SDS011;7075;53.574;10.054;2024-01-15T13:41:48;3.50;;;1.20;;
13999;SDS011;7075;53.574;10.054;2024-01-15T13:44:17;4.23;;;1.00;;
13999;SDS011;7075;53.574;10.054;2024-01-15T13:46:44;1.03;;;0.80;;
13999;SDS011;7075;53.574;10.054;2024-01-15T13:49:10;2.17;;;0.87;;
13999;SDS011;7075;53.574;10.054;2024-01-15T13:51:36;2.70;;;1.00;;
13999;SDS011;7075;53.574;10.054;2024-01-15T13:54:03;6.07;;;1.10;;
13999;SDS011;7075;53.574;10.054;2024-01-15T13:56:31;3.23;;;1.13;;
13999;SDS011;7075;53.574;10.054;2024-01-15T13:58:58;1.53;;;1.00;;
13999;SDS011;7075;53.574;10.054;2024-01-15T14:01:25;0.97;;;0.90;;
13999;SDS011;7075;53.574;10.054;2024-01-15T14:03:54;2.17;;;1.00;;
13999;SDS011;7075;53.574;10.054;2024-01-15T14:06:21;3.13;;;1.23;;
13999;SDS011;7075;53.574;10.054;2024-01-15T14:08:48;1.90;;;1.53;;
13999;SDS011;7075;53.574;10.054;2024-01-15T14:11:14;3.93;;;1.10;;
13999;SDS011;7075;53.574;10.054;2024-01-15T14:13:40;1.83;;;1.10;;
13999;SDS011;7075;53.574;10.054;2024-01-15T14:16:07;2.50;;;1.40;;
13999;SDS011;7075;53.574;10.054;2024-01-15T14:18:34;4.63;;;1.70;;
13999;SDS011;7075;53.574;10.054;2024-01-15T14:21:00;2.93;;;1.00;;
13999;SDS011;7075;53.574;10.054;2024-01-15T14:23:27;2.27;;;1.03;;
13999;SDS011;7075;53.574;10.054;2024-01-15T14:25:54;2.43;;;1.10;;
13999;SDS011;7075;53.574;10.054;2024-01-15T14:28:20;3.70;;;1.17;;
13999;SDS011;7075;53.574;10.054;2024-01-15T14:30:49;2.63;;;1.47;;
13999;SDS011;7075;53.574;10.054;2024-01-15T14:33:16;3.00;;;1.10;;
13999;SDS011;7075;53.574;10.054;2024-01-15T14:35:42;3.00;;;1.10;;
13999;SDS011;7075;53.574;10.054;2024-01-15T14:38:09;1.30;;;1.00;;
13999;SDS011;7075;53.574;10.054;2024-01-15T14:40:36;1.60;;;1.10;;
13999;SDS011;7075;53.574;10.054;2024-01-15T14:43:04;1.57;;;0.93;;
13999;SDS011;7075;53.574;10.054;2024-01-15T14:45:29;4.73;;;1.30;;
13999;SDS011;7075;53.574;10.054;2024-01-15T14:47:55;5.57;;;1.70;;